Time;durP1;ratioP1;P1;durP2;ratioP2;P2;SDS_P1;SDS_P2;PMS_P1;PMS_P2;Temp;Humidity;BMP_temperature;BMP_pressure;BME280_temperature;BME280_humidity;BME280_pressure;Samples;Min_cycle;Max_cycle;Signal;HPM_P1;HPM_P2
2022/12/31 00:00:58;;;;;;;2.75;1.60;;;;;;;;;;5029428;28;20040;-76
2022/12/31 00:03:24;;;;;;;5.15;2.30;;;;;;;;;;5028395;28;20060;-76
2022/12/31 00:05:50;;;;;;;3.45;1.75;;;;;;;;;;5026383;28;20025;-76
2022/12/31 00:08:16;;;;;;;3.35;1.20;;;;;;;;;;5028223;28;20091;-76
2022/12/31 00:10:42;;;;;;;2.10;1.40;;;;;;;;;;5024201;28;20124;-77
2022/12/31 00:13:11;;;;;;;2.42;1.60;;;;;;;;;;5026371;28;20514;-76
2022/12/31 00:15:37;;;;;;;2.80;1.40;;;;;;;;;;5029937;28;20059;-76
2022/12/31 00:18:03;;;;;;;2.75;1.58;;;;;;;;;;5028250;28;20435;-76
2022/12/31 00:20:29;;;;;;;3.65;1.73;;;;;;;;;;5027774;28;20108;-77
2022/12/31 00:22:55;;;;;;;6.13;1.65;;;;;;;;;;5028569;28;20124;-77
2022/12/31 00:25:21;;;;;;;2.75;1.40;;;;;;;;;;5028756;28;20021;-76
2022/12/31 00:27:48;;;;;;;3.15;1.40;;;;;;;;;;5028483;28;20018;-76
2022/12/31 00:30:14;;;;;;;2.05;1.50;;;;;;;;;;5026031;28;20491;-75
2022/12/31 00:32:40;;;;;;;2.38;1.38;;;;;;;;;;5027606;28;20144;-75
2022/12/31 00:35:06;;;;;;;2.65;1.40;;;;;;;;;;5028419;28;20132;-76
2022/12/31 00:37:32;;;;;;;2.20;1.60;;;;;;;;;;5028546;28;20178;-76
2022/12/31 00:39:58;;;;;;;4.03;1.70;;;;;;;;;;5028637;28;20034;-76
2022/12/31 00:42:24;;;;;;;2.65;1.30;;;;;;;;;;5027758;28;20077;-76
2022/12/31 00:44:50;;;;;;;4.43;1.35;;;;;;;;;;5025196;28;20040;-75
2022/12/31 00:47:16;;;;;;;2.63;1.70;;;;;;;;;;5028496;28;20022;-75
2022/12/31 00:49:42;;;;;;;2.20;1.33;;;;;;;;;;5028038;28;20041;-76
2022/12/31 00:52:08;;;;;;;3.05;1.20;;;;;;;;;;5027995;28;20010;-75
2022/12/31 00:54:34;;;;;;;2.75;1.38;;;;;;;;;;5029255;28;20073;-76
2022/12/31 00:57:00;;;;;;;1.60;1.17;;;;;;;;;;5027957;28;20083;-76
2022/12/31 00:59:26;;;;;;;1.85;1.05;;;;;;;;;;5028225;28;20029;-78
2022/12/31 01:01:52;;;;;;;1.85;1.00;;;;;;;;;;5025702;28;20028;-76
2022/12/31 01:04:20;;;;;;;1.70;1.38;;;;;;;;;;5026944;28;20052;-75
2022/12/31 01:06:46;;;;;;;2.03;1.23;;;;;;;;;;5027950;28;20037;-76
2022/12/31 01:09:13;;;;;;;1.98;1.30;;;;;;;;;;5028943;28;20037;-75
2022/12/31 01:11:39;;;;;;;3.03;1.05;;;;;;;;;;5026416;28;20071;-76
2022/12/31 01:14:10;;;;;;;1.85;1.20;;;;;;;;;;5024415;28;20132;-76
2022/12/31 01:16:38;;;;;;;1.90;1.40;;;;;;;;;;5023537;28;20021;-76
2022/12/31 01:19:05;;;;;;;4.20;1.30;;;;;;;;;;5030158;28;20033;-76
2022/12/31 01:21:32;;;;;;;2.35;1.50;;;;;;;;;;5029041;28;20029;-76
2022/12/31 01:23:58;;;;;;;1.67;1.38;;;;;;;;;;5026203;28;20104;-76
2022/12/31 01:26:24;;;;;;;1.77;1.02;;;;;;;;;;5027470;28;20039;-76
2022/12/31 01:28:50;;;;;;;4.78;1.15;;;;;;;;;;5028214;28;20029;-75
2022/12/31 01:31:17;;;;;;;4.93;1.30;;;;;;;;;;5027971;28;20473;-74
2022/12/31 01:33:43;;;;;;;1.70;1.50;;;;;;;;;;5023223;28;20100;-76
2022/12/31 01:36:11;;;;;;;1.65;1.20;;;;;;;;;;5028135;28;20033;-76
2022/12/31 01:38:39;;;;;;;2.35;1.27;;;;;;;;;;5026219;28;20056;-76
2022/12/31 01:41:05;;;;;;;2.13;1.45;;;;;;;;;;5027678;28;20028;-77
2022/12/31 01:43:43;;;;;;;4.82;1.33;;;;;;;;;;5027536;28;20038;-76
2022/12/31 01:46:10;;;;;;;2.65;1.10;;;;;;;;;;5027972;28;20033;-76
2022/12/31 01:48:36;;;;;;;2.22;1.40;;;;;;;;;;5026862;28;20528;-76
2022/12/31 01:51:02;;;;;;;1.60;1.02;;;;;;;;;;5024115;28;20468;-76
2022/12/31 01:53:28;;;;;;;2.08;1.00;;;;;;;;;;5027178;28;20029;-76
2022/12/31 01:55:57;;;;;;;1.80;1.10;;;;;;;;;;5028983;28;20412;-77
2022/12/31 01:58:25;;;;;;;2.78;1.20;;;;;;;;;;5022451;28;20042;-77
2022/12/31 02:00:51;;;;;;;2.28;1.15;;;;;;;;;;5026739;28;20901;-77
2022/12/31 02:03:18;;;;;;;1.83;1.00;;;;;;;;;;5026190;28;20056;-77
2022/12/31 02:05:54;;;;;;;0.70;0.70;;;;;;;;;;5024833;28;20037;-75
2022/12/31 02:08:20;;;;;;;2.03;0.98;;;;;;;;;;5025422;28;20045;-77
2022/12/31 02:10:46;;;;;;;1.85;1.02;;;;;;;;;;5025347;28;20044;-76
2022/12/31 02:13:12;;;;;;;0.80;0.80;;;;;;;;;;5025560;28;20026;-76
2022/12/31 02:15:59;;;;;;;4.20;1.58;;;;;;;;;;5026152;28;20033;-76
2022/12/31 02:18:44;;;;;;;3.97;1.10;;;;;;;;;;5025894;28;20109;-77
2022/12/31 02:21:25;;;;;;;2.05;0.90;;;;;;;;;;5026955;28;20040;-77
2022/12/31 02:24:10;;;;;;;2.85;1.27;;;;;;;;;;5025572;28;20059;-77
2022/12/31 02:26:53;;;;;;;1.75;1.10;;;;;;;;;;5029604;28;20052;-76
2022/12/31 02:29:40;;;;;;;2.88;0.88;;;;;;;;;;5030118;28;20507;-77
2022/12/31 02:32:10;;;;;;;1.38;1.10;;;;;;;;;;5031933;28;20033;-76
2022/12/31 02:34:37;;;;;;;1.58;1.10;;;;;;;;;;5030576;28;20056;-76
2022/12/31 02:37:05;;;;;;;1.88;1.55;;;;;;;;;;5031843;28;20079;-76
2022/12/31 02:39:33;;;;;;;1.65;1.05;;;;;;;;;;5027963;28;20068;-76
2022/12/31 02:41:59;;;;;;;1.73;1.10;;;;;;;;;;5024659;28;20113;-77
2022/12/31 02:44:27;;;;;;;1.23;0.90;;;;;;;;;;5029227;28;20041;-77
2022/12/31 02:46:53;;;;;;;1.05;0.90;;;;;;;;;;5030310;28;20500;-77
2022/12/31 02:49:19;;;;;;;1.02;0.80;;;;;;;;;;5030113;28;20041;-76
2022/12/31 02:51:58;;;;;;;1.85;1.00;;;;;;;;;;5030719;28;20044;-76
2022/12/31 02:54:31;;;;;;;1.90;0.85;;;;;;;;;;5029229;28;20033;-76
2022/12/31 02:56:57;;;;;;;2.33;0.85;;;;;;;;;;5028229;28;20040;-76
2022/12/31 03:02:18;;;;;;;1.17;0.95;;;;;;;;;;5030632;28;20056;-76
2022/12/31 03:04:49;;;;;;;1.20;0.80;;;;;;;;;;5029844;28;20113;-76
2022/12/31 03:07:22;;;;;;;1.65;1.05;;;;;;;;;;5030924;28;20021;-76
2022/12/31 03:09:49;;;;;;;1.50;0.80;;;;;;;;;;5029708;28;20025;-75
2022/12/31 03:15:00;;;;;;;1.75;1.25;;;;;;;;;;5023900;28;20048;-75
2022/12/31 03:17:26;;;;;;;1.10;0.73;;;;;;;;;;5029947;28;20077;-75
2022/12/31 03:22:38;;;;;;;0.90;0.90;;;;;;;;;;5030564;28;20071;-76
2022/12/31 03:27:56;;;;;;;1.25;0.70;;;;;;;;;;5029398;28;20487;-76
2022/12/31 03:30:23;;;;;;;0.90;0.82;;;;;;;;;;5026288;28;20026;-77
2022/12/31 03:32:49;;;;;;;1.60;0.68;;;;;;;;;;5027279;28;20471;-76
2022/12/31 03:35:15;;;;;;;1.58;0.70;;;;;;;;;;5028288;28;20033;-77
2022/12/31 03:37:42;;;;;;;3.15;0.80;;;;;;;;;;5029551;28;20416;-76
2022/12/31 03:40:09;;;;;;;0.70;0.70;;;;;;;;;;5029085;28;20025;-76
2022/12/31 03:42:35;;;;;;;2.75;0.82;;;;;;;;;;5027423;28;20034;-76
2022/12/31 03:45:01;;;;;;;1.02;0.80;;;;;;;;;;5029547;28;20048;-77
2022/12/31 03:47:27;;;;;;;0.75;0.70;;;;;;;;;;5026427;28;20453;-76
2022/12/31 03:49:53;;;;;;;0.85;0.52;;;;;;;;;;5029743;28;20360;-76
2022/12/31 03:52:19;;;;;;;1.02;0.73;;;;;;;;;;5028343;28;20032;-75
2022/12/31 03:54:45;;;;;;;0.57;0.57;;;;;;;;;;5029710;28;20036;-76
2022/12/31 03:57:11;;;;;;;0.98;0.82;;;;;;;;;;5029556;28;20033;-76
2022/12/31 03:59:37;;;;;;;2.20;0.63;;;;;;;;;;5027964;28;20052;-76
2022/12/31 04:02:03;;;;;;;1.40;1.05;;;;;;;;;;5027332;28;20492;-76
2022/12/31 04:04:29;;;;;;;0.73;0.70;;;;;;;;;;5029274;28;20053;-76
2022/12/31 04:06:55;;;;;;;0.60;0.60;;;;;;;;;;5026538;28;20030;-76
2022/12/31 04:09:21;;;;;;;1.42;0.88;;;;;;;;;;5029474;28;20037;-76
2022/12/31 04:11:47;;;;;;;1.05;0.80;;;;;;;;;;5026997;28;20026;-76
2022/12/31 04:14:13;;;;;;;0.75;0.73;;;;;;;;;;5029362;28;20034;-76
2022/12/31 04:16:39;;;;;;;0.82;0.80;;;;;;;;;;5028642;28;20029;-76
2022/12/31 04:19:06;;;;;;;1.98;0.70;;;;;;;;;;5026087;28;20082;-76
2022/12/31 04:21:32;;;;;;;1.85;0.73;;;;;;;;;;5028196;28;20082;-76
2022/12/31 04:23:58;;;;;;;1.55;0.80;;;;;;;;;;5029175;28;20041;-76
2022/12/31 04:26:24;;;;;;;0.63;0.50;;;;;;;;;;5027758;28;20231;-76
2022/12/31 04:28:50;;;;;;;2.45;0.57;;;;;;;;;;5027193;28;20021;-76
2022/12/31 04:31:15;;;;;;;0.50;0.50;;;;;;;;;;5028448;28;20029;-76
2022/12/31 04:33:41;;;;;;;4.03;0.95;;;;;;;;;;5029010;28;20041;-76
2022/12/31 04:36:08;;;;;;;1.33;0.85;;;;;;;;;;5020943;28;20033;-76
2022/12/31 04:38:34;;;;;;;0.38;0.38;;;;;;;;;;5028102;28;20040;-76
2022/12/31 04:41:15;;;;;;;1.35;0.70;;;;;;;;;;5027026;28;20428;-76
2022/12/31 04:43:41;;;;;;;;;;;;;;;;;;5027784;28;20039;-76
2022/12/31 04:46:07;;;;;;;1.23;0.70;;;;;;;;;;5027729;28;19952;-76
2022/12/31 04:48:34;;;;;;;1.25;0.60;;;;;;;;;;5027635;28;20434;-76
2022/12/31 04:51:00;;;;;;;1.63;0.60;;;;;;;;;;5028490;28;20026;-76
2022/12/31 04:53:26;;;;;;;0.50;0.50;;;;;;;;;;5015639;28;20124;-76
2022/12/31 04:55:52;;;;;;;6.22;0.50;;;;;;;;;;5027922;28;20029;-76
2022/12/31 04:58:18;;;;;;;0.50;0.50;;;;;;;;;;5028717;28;20032;-76
2022/12/31 05:00:45;;;;;;;0.85;0.77;;;;;;;;;;5027938;28;20396;-76
2022/12/31 05:03:11;;;;;;;0.57;0.57;;;;;;;;;;5026404;28;20037;-76
2022/12/31 05:05:42;;;;;;;2.90;0.90;;;;;;;;;;5026999;28;20587;-76
2022/12/31 05:08:08;;;;;;;0.97;0.50;;;;;;;;;;5022578;28;20079;-76
2022/12/31 05:10:35;;;;;;;1.85;0.88;;;;;;;;;;5027440;28;20259;-76
2022/12/31 05:13:01;;;;;;;1.30;0.70;;;;;;;;;;5025940;28;20026;-76
2022/12/31 05:15:59;;;;;;;0.60;0.60;;;;;;;;;;5026360;28;20029;-77
2022/12/31 05:18:25;;;;;;;1.95;0.70;;;;;;;;;;5028213;28;20030;-76
2022/12/31 05:20:51;;;;;;;0.38;0.38;;;;;;;;;;5026025;28;20029;-77
2022/12/31 05:23:18;;;;;;;0.80;0.65;;;;;;;;;;5022603;28;20030;-76
2022/12/31 05:25:45;;;;;;;1.15;0.60;;;;;;;;;;5024409;28;20476;-75
2022/12/31 05:28:11;;;;;;;0.85;0.50;;;;;;;;;;5026635;28;20022;-76
2022/12/31 05:30:37;;;;;;;0.85;0.70;;;;;;;;;;5026607;28;20033;-76
2022/12/31 05:33:05;;;;;;;0.50;0.50;;;;;;;;;;5028161;28;20096;-76
2022/12/31 05:35:31;;;;;;;0.40;0.40;;;;;;;;;;5025018;28;20492;-76
2022/12/31 05:37:59;;;;;;;0.63;0.60;;;;;;;;;;5025384;28;20052;-76
2022/12/31 05:40:25;;;;;;;0.73;0.63;;;;;;;;;;5024449;28;20029;-76
2022/12/31 05:42:51;;;;;;;0.60;0.60;;;;;;;;;;5027272;28;20388;-76
2022/12/31 05:45:17;;;;;;;0.47;0.47;;;;;;;;;;5026340;28;20120;-76
2022/12/31 05:47:43;;;;;;;0.60;0.60;;;;;;;;;;5026137;28;20025;-77
2022/12/31 05:50:10;;;;;;;0.63;0.63;;;;;;;;;;5026114;28;20164;-77
2022/12/31 05:52:36;;;;;;;0.80;0.80;;;;;;;;;;5028008;28;20030;-77
2022/12/31 05:55:02;;;;;;;1.05;0.60;;;;;;;;;;5026515;28;20029;-76
2022/12/31 05:57:28;;;;;;;0.40;0.40;;;;;;;;;;5012558;28;20087;-76
2022/12/31 05:59:54;;;;;;;0.80;0.70;;;;;;;;;;5026085;28;20455;-76
2022/12/31 06:02:20;;;;;;;0.60;0.60;;;;;;;;;;5025973;28;20180;-76
2022/12/31 06:04:46;;;;;;;0.50;0.50;;;;;;;;;;5017428;28;20037;-76
2022/12/31 06:07:18;;;;;;;0.93;0.60;;;;;;;;;;5026901;28;20101;-76
2022/12/31 06:09:44;;;;;;;0.60;0.47;;;;;;;;;;5025595;28;20036;-76
2022/12/31 06:12:10;;;;;;;1.08;0.63;;;;;;;;;;5023527;28;20022;-76
2022/12/31 06:14:36;;;;;;;0.45;0.45;;;;;;;;;;5022958;28;20029;-77
2022/12/31 06:17:02;;;;;;;1.35;0.52;;;;;;;;;;5024555;28;20508;-76
2022/12/31 06:19:28;;;;;;;0.43;0.43;;;;;;;;;;5025862;28;21832;-77
2022/12/31 06:21:58;;;;;;;0.45;0.45;;;;;;;;;;5026188;28;20114;-77
2022/12/31 06:24:23;;;;;;;0.63;0.63;;;;;;;;;;5026454;28;20034;-76
2022/12/31 06:26:49;;;;;;;0.98;0.80;;;;;;;;;;5026788;28;20036;-76
2022/12/31 06:29:15;;;;;;;0.73;0.47;;;;;;;;;;5023728;28;20022;-76
2022/12/31 06:31:41;;;;;;;0.50;0.50;;;;;;;;;;5024859;28;20075;-76
2022/12/31 06:34:11;;;;;;;0.50;0.50;;;;;;;;;;5025904;28;20435;-76
2022/12/31 06:36:37;;;;;;;0.55;0.55;;;;;;;;;;5027699;28;20319;-76
2022/12/31 06:39:03;;;;;;;0.60;0.60;;;;;;;;;;5024440;28;20159;-76
2022/12/31 06:41:31;;;;;;;0.50;0.50;;;;;;;;;;5025384;28;20045;-75
2022/12/31 06:43:57;;;;;;;0.70;0.70;;;;;;;;;;5024975;28;20132;-76
2022/12/31 06:46:23;;;;;;;1.90;0.35;;;;;;;;;;5026191;28;20034;-76
2022/12/31 06:48:48;;;;;;;0.40;0.40;;;;;;;;;;5020051;28;20392;-75
2022/12/31 06:51:16;;;;;;;0.50;0.47;;;;;;;;;;5026835;28;20022;-75
2022/12/31 06:53:42;;;;;;;1.33;0.60;;;;;;;;;;5024878;28;20022;-75
2022/12/31 06:56:19;;;;;;;0.40;0.40;;;;;;;;;;5026748;28;20041;-75
2022/12/31 06:58:45;;;;;;;0.80;0.60;;;;;;;;;;5024394;28;20029;-75
2022/12/31 07:01:30;;;;;;;0.65;0.60;;;;;;;;;;5024696;28;20035;-76
2022/12/31 07:04:02;;;;;;;0.30;0.30;;;;;;;;;;5022440;28;20025;-75
2022/12/31 07:06:34;;;;;;;1.63;0.47;;;;;;;;;;5026040;28;20450;-76
2022/12/31 07:09:00;;;;;;;0.82;0.77;;;;;;;;;;5027109;28;20025;-76
2022/12/31 07:11:31;;;;;;;0.40;0.40;;;;;;;;;;5029780;28;20388;-75
2022/12/31 07:14:03;;;;;;;0.73;0.43;;;;;;;;;;5022979;28;20049;-76
2022/12/31 07:16:34;;;;;;;0.47;0.43;;;;;;;;;;5022352;28;20038;-75
2022/12/31 07:19:00;;;;;;;;;;;;;;;;;;5024988;28;20108;-75
2022/12/31 07:21:32;;;;;;;0.73;0.50;;;;;;;;;;5028533;28;20469;-76
2022/12/31 07:23:58;;;;;;;0.50;0.50;;;;;;;;;;5029781;28;20044;-76
2022/12/31 07:26:47;;;;;;;0.32;0.32;;;;;;;;;;5030202;28;20033;-76
2022/12/31 07:29:37;;;;;;;0.40;0.40;;;;;;;;;;5024693;28;20747;-75
2022/12/31 07:32:19;;;;;;;0.40;0.38;;;;;;;;;;5020998;28;20041;-76
2022/12/31 07:34:45;;;;;;;0.50;0.50;;;;;;;;;;5021400;28;20040;-74
2022/12/31 07:37:14;;;;;;;0.25;0.25;;;;;;;;;;5028914;28;20033;-76
2022/12/31 07:39:47;;;;;;;0.35;0.35;;;;;;;;;;5028790;28;20476;-76
2022/12/31 07:42:18;;;;;;;0.50;0.50;;;;;;;;;;5026222;28;20646;-76
2022/12/31 07:44:51;;;;;;;0.65;0.60;;;;;;;;;;5027767;28;20036;-76
2022/12/31 07:47:20;;;;;;;0.63;0.63;;;;;;;;;;5026948;28;20057;-76
2022/12/31 07:49:46;;;;;;;1.65;0.38;;;;;;;;;;5022641;28;20034;-76
2022/12/31 07:52:12;;;;;;;0.52;0.40;;;;;;;;;;5026781;28;20523;-76
2022/12/31 07:54:38;;;;;;;0.40;0.40;;;;;;;;;;5029633;28;20030;-76
2022/12/31 07:57:04;;;;;;;0.75;0.47;;;;;;;;;;5031118;28;20032;-73
2022/12/31 07:59:40;;;;;;;0.70;0.43;;;;;;;;;;5021770;28;20033;-73
2022/12/31 08:02:25;;;;;;;0.38;0.38;;;;;;;;;;5028846;28;20080;-73
2022/12/31 08:05:03;;;;;;;0.38;0.38;;;;;;;;;;5026287;28;20032;-75
2022/12/31 08:07:36;;;;;;;0.40;0.40;;;;;;;;;;5026463;28;20057;-75
2022/12/31 08:10:33;;;;;;;0.40;0.40;;;;;;;;;;5029220;28;20026;-76
2022/12/31 08:13:01;;;;;;;0.82;0.50;;;;;;;;;;5013508;28;20073;-76
2022/12/31 08:15:27;;;;;;;0.40;0.40;;;;;;;;;;5028114;28;20033;-76
2022/12/31 08:17:54;;;;;;;0.40;0.40;;;;;;;;;;5028605;28;20033;-75
2022/12/31 08:20:20;;;;;;;0.52;0.50;;;;;;;;;;5026865;28;20037;-80
2022/12/31 08:22:54;;;;;;;0.50;0.50;;;;;;;;;;5026797;28;20035;-84
2022/12/31 08:25:33;;;;;;;0.40;0.40;;;;;;;;;;5030119;28;20547;-83
2022/12/31 08:28:18;;;;;;;0.50;0.50;;;;;;;;;;5024152;28;20026;-75
2022/12/31 08:30:52;;;;;;;0.68;0.50;;;;;;;;;;5027778;28;20384;-76
2022/12/31 08:33:22;;;;;;;0.38;0.38;;;;;;;;;;5027360;28;20065;-75
2022/12/31 08:35:56;;;;;;;1.08;0.65;;;;;;;;;;5026735;28;20117;-76
2022/12/31 08:38:31;;;;;;;0.50;0.50;;;;;;;;;;5025978;28;20047;-77
2022/12/31 08:41:19;;;;;;;0.52;0.52;;;;;;;;;;5029215;28;20041;-77
2022/12/31 08:43:56;;;;;;;0.40;0.40;;;;;;;;;;5033764;28;20033;-76
2022/12/31 08:46:26;;;;;;;1.70;0.50;;;;;;;;;;5036871;28;20099;-75
2022/12/31 08:48:52;;;;;;;0.70;0.52;;;;;;;;;;5025283;28;20052;-76
2022/12/31 08:51:20;;;;;;;1.00;0.52;;;;;;;;;;5030734;28;20476;-76
2022/12/31 08:53:47;;;;;;;3.63;0.70;;;;;;;;;;5030408;28;20033;-76
2022/12/31 08:56:20;;;;;;;1.77;0.70;;;;;;;;;;5027750;28;20566;-76
2022/12/31 08:58:57;;;;;;;0.55;0.55;;;;;;;;;;5028038;28;20045;-74
2022/12/31 09:01:26;;;;;;;1.02;0.60;;;;;;;;;;5033349;28;20032;-75
2022/12/31 09:03:57;;;;;;;2.28;0.60;;;;;;;;;;5027277;28;20041;-75
2022/12/31 09:06:31;;;;;;;0.70;0.50;;;;;;;;;;5022387;28;20025;-73
2022/12/31 09:09:00;;;;;;;0.65;0.40;;;;;;;;;;5026403;28;20483;-71
2022/12/31 09:11:30;;;;;;;0.50;0.47;;;;;;;;;;5024201;28;20029;-73
2022/12/31 09:14:02;;;;;;;0.80;0.60;;;;;;;;;;5032417;28;20025;-76
2022/12/31 09:16:49;;;;;;;1.23;0.60;;;;;;;;;;5026312;28;20116;-74
2022/12/31 09:19:15;;;;;;;0.55;0.55;;;;;;;;;;5023730;28;20022;-73
2022/12/31 09:21:43;;;;;;;2.00;0.40;;;;;;;;;;5025501;28;20073;-75
2022/12/31 09:24:11;;;;;;;0.40;0.40;;;;;;;;;;5028615;28;20255;-74
2022/12/31 09:26:45;;;;;;;0.55;0.52;;;;;;;;;;5022053;28;20041;-74
2022/12/31 09:29:14;;;;;;;2.30;0.65;;;;;;;;;;5024014;28;20052;-74
2022/12/31 09:31:49;;;;;;;3.10;0.45;;;;;;;;;;5026287;28;20032;-75
2022/12/31 09:34:22;;;;;;;0.93;0.68;;;;;;;;;;5031013;28;20040;-75
2022/12/31 09:36:50;;;;;;;1.17;0.70;;;;;;;;;;5028053;28;20060;-75
2022/12/31 09:39:19;;;;;;;0.50;0.43;;;;;;;;;;5026589;28;20030;-76
2022/12/31 09:42:00;;;;;;;0.47;0.47;;;;;;;;;;5023737;28;20041;-74
2022/12/31 09:44:33;;;;;;;0.50;0.50;;;;;;;;;;5032513;28;20403;-72
2022/12/31 09:47:14;;;;;;;1.08;0.50;;;;;;;;;;5027489;28;20082;-74
2022/12/31 09:49:58;;;;;;;3.88;0.68;;;;;;;;;;5026753;28;20084;-75
2022/12/31 09:52:43;;;;;;;0.40;0.40;;;;;;;;;;5020523;28;20087;-74
2022/12/31 09:55:08;;;;;;;0.30;0.30;;;;;;;;;;5027246;28;20041;-74
2022/12/31 09:57:55;;;;;;;0.57;0.47;;;;;;;;;;5024659;28;20051;-75
2022/12/31 10:00:34;;;;;;;1.55;0.45;;;;;;;;;;5020089;28;20025;-78
2022/12/31 10:03:10;;;;;;;0.40;0.40;;;;;;;;;;5027068;28;20392;-76
2022/12/31 10:05:41;;;;;;;0.63;0.45;;;;;;;;;;5022483;28;20038;-75
2022/12/31 10:08:26;;;;;;;0.47;0.40;;;;;;;;;;5023707;28;20030;-75
2022/12/31 10:10:54;;;;;;;0.55;0.45;;;;;;;;;;5030320;28;20040;-73
2022/12/31 10:13:41;;;;;;;2.25;0.50;;;;;;;;;;5032991;28;20107;-74
2022/12/31 10:16:10;;;;;;;0.52;0.50;;;;;;;;;;5020740;28;20104;-79
2022/12/31 10:18:57;;;;;;;1.13;0.60;;;;;;;;;;5024192;28;20255;-74
2022/12/31 10:21:36;;;;;;;0.30;0.30;;;;;;;;;;5024898;28;20026;-73
2022/12/31 10:24:19;;;;;;;2.03;0.55;;;;;;;;;;5022692;28;20040;-75
2022/12/31 10:26:45;;;;;;;0.93;0.65;;;;;;;;;;5019568;28;20029;-76
2022/12/31 10:29:11;;;;;;;3.38;0.40;;;;;;;;;;5030943;28;20059;-76
2022/12/31 10:31:39;;;;;;;0.55;0.50;;;;;;;;;;5024218;28;20025;-77
2022/12/31 10:34:25;;;;;;;2.72;0.38;;;;;;;;;;5026152;28;20056;-77
2022/12/31 10:36:52;;;;;;;1.25;0.70;;;;;;;;;;5023441;28;20022;-77
2022/12/31 10:39:24;;;;;;;3.00;0.50;;;;;;;;;;5022845;28;20083;-77
2022/12/31 10:42:09;;;;;;;1.10;0.40;;;;;;;;;;5024988;28;20112;-78
2022/12/31 10:44:53;;;;;;;0.57;0.40;;;;;;;;;;5033334;28;20051;-77
2022/12/31 10:47:38;;;;;;;0.85;0.57;;;;;;;;;;5038370;28;20075;-79
2022/12/31 10:50:28;;;;;;;0.55;0.50;;;;;;;;;;5023086;28;20069;-77
2022/12/31 10:53:13;;;;;;;0.70;0.50;;;;;;;;;;5035753;28;20057;-77
2022/12/31 10:55:47;;;;;;;0.32;0.32;;;;;;;;;;5027220;28;20017;-77
2022/12/31 10:58:32;;;;;;;0.50;0.50;;;;;;;;;;5024605;28;20460;-78
2022/12/31 11:01:09;;;;;;;0.60;0.50;;;;;;;;;;5031466;28;20025;-76
2022/12/31 11:04:08;;;;;;;0.75;0.55;;;;;;;;;;5025537;28;20092;-76
2022/12/31 11:06:45;;;;;;;0.80;0.80;;;;;;;;;;5013416;28;20047;-76
2022/12/31 11:09:21;;;;;;;0.60;0.40;;;;;;;;;;5033756;28;20032;-76
2022/12/31 11:12:02;;;;;;;0.40;0.40;;;;;;;;;;5035227;28;20036;-77
2022/12/31 11:14:47;;;;;;;2.60;1.02;;;;;;;;;;5037595;28;20033;-77
2022/12/31 11:17:20;;;;;;;1.10;0.60;;;;;;;;;;5031152;28;20124;-74
2022/12/31 11:19:58;;;;;;;1.30;0.60;;;;;;;;;;5028067;28;20164;-74
2022/12/31 11:22:45;;;;;;;0.55;0.50;;;;;;;;;;5035622;28;20114;-74
2022/12/31 11:25:11;;;;;;;0.70;0.43;;;;;;;;;;5020287;28;20549;-74
2022/12/31 11:28:02;;;;;;;0.80;0.57;;;;;;;;;;5032370;28;20071;-74
2022/12/31 11:30:54;;;;;;;0.33;0.33;;;;;;;;;;5036054;28;20450;-73
2022/12/31 11:33:44;;;;;;;1.40;0.50;;;;;;;;;;5021379;28;20033;-74
2022/12/31 11:36:16;;;;;;;1.25;0.75;;;;;;;;;;5026529;28;20029;-75
2022/12/31 11:38:52;;;;;;;1.75;0.60;;;;;;;;;;5024409;28;20395;-76
2022/12/31 11:41:30;;;;;;;1.05;0.80;;;;;;;;;;5023810;28;20021;-76
2022/12/31 11:44:12;;;;;;;1.10;1.00;;;;;;;;;;5023255;28;20693;-77
2022/12/31 11:46:43;;;;;;;1.42;0.60;;;;;;;;;;5022259;28;20432;-78
2022/12/31 11:49:30;;;;;;;0.50;0.50;;;;;;;;;;5025563;28;20036;-75
2022/12/31 11:52:15;;;;;;;0.60;0.50;;;;;;;;;;5028707;28;20139;-75
2022/12/31 11:54:57;;;;;;;1.95;0.68;;;;;;;;;;5025620;28;20602;-74
2022/12/31 11:57:29;;;;;;;2.83;0.80;;;;;;;;;;5019188;28;20532;-75
2022/12/31 12:00:00;;;;;;;0.55;0.55;;;;;;;;;;5023860;28;20128;-74
2022/12/31 12:02:31;;;;;;;3.53;0.90;;;;;;;;;;5021756;28;20033;-75
2022/12/31 12:05:00;;;;;;;1.23;0.65;;;;;;;;;;5026807;28;20044;-75
2022/12/31 12:07:26;;;;;;;1.23;0.90;;;;;;;;;;5027486;28;20033;-75
2022/12/31 12:09:54;;;;;;;1.10;0.88;;;;;;;;;;5026052;28;20438;-75
2022/12/31 12:12:20;;;;;;;1.73;1.05;;;;;;;;;;5019702;28;20021;-75
2022/12/31 12:14:49;;;;;;;0.88;0.68;;;;;;;;;;5024498;28;20044;-74
2022/12/31 12:17:41;;;;;;;1.00;0.80;;;;;;;;;;5023746;28;20037;-76
2022/12/31 12:20:19;;;;;;;1.52;0.65;;;;;;;;;;5023815;28;20483;-76
2022/12/31 12:22:53;;;;;;;1.83;1.10;;;;;;;;;;5025910;28;20046;-75
2022/12/31 12:25:21;;;;;;;1.83;1.10;;;;;;;;;;5019088;28;20035;-75
2022/12/31 12:27:47;;;;;;;1.48;0.80;;;;;;;;;;5028501;28;20107;-76
2022/12/31 12:30:28;;;;;;;5.97;0.90;;;;;;;;;;5025684;28;20481;-75
2022/12/31 12:32:55;;;;;;;0.82;0.73;;;;;;;;;;5028755;28;20053;-75
2022/12/31 12:35:31;;;;;;;1.15;0.70;;;;;;;;;;5022939;28;20117;-73
2022/12/31 12:37:58;;;;;;;1.40;0.90;;;;;;;;;;5019928;28;20039;-75
2022/12/31 12:40:25;;;;;;;0.40;0.40;;;;;;;;;;5021318;28;20077;-76
2022/12/31 12:42:52;;;;;;;0.90;0.73;;;;;;;;;;5031455;28;20035;-74
2022/12/31 12:45:20;;;;;;;0.55;0.55;;;;;;;;;;5019265;28;20034;-73
2022/12/31 12:47:48;;;;;;;2.95;0.70;;;;;;;;;;5020509;28;20590;-72
2022/12/31 12:50:18;;;;;;;0.70;0.70;;;;;;;;;;5027026;28;20026;-73
2022/12/31 12:52:55;;;;;;;1.63;0.67;;;;;;;;;;5016603;28;20091;-76
2022/12/31 12:55:40;;;;;;;0.60;0.57;;;;;;;;;;5024639;28;20041;-73
2022/12/31 12:58:21;;;;;;;1.13;0.60;;;;;;;;;;5031976;28;20383;-73
2022/12/31 13:01:02;;;;;;;0.57;0.50;;;;;;;;;;5035901;28;20115;-75
2022/12/31 13:03:44;;;;;;;0.70;0.60;;;;;;;;;;5018354;28;20045;-73
2022/12/31 13:06:29;;;;;;;0.60;0.47;;;;;;;;;;5025073;28;20024;-74
2022/12/31 13:09:03;;;;;;;1.33;0.82;;;;;;;;;;5022612;28;20078;-75
2022/12/31 13:11:45;;;;;;;0.95;0.80;;;;;;;;;;5027188;28;20072;-73
2022/12/31 13:14:19;;;;;;;1.13;0.70;;;;;;;;;;5034292;28;20029;-76
2022/12/31 13:16:55;;;;;;;1.02;0.60;;;;;;;;;;5027170;28;20124;-82
2022/12/31 13:19:36;;;;;;;2.20;0.70;;;;;;;;;;5022590;28;20037;-76
2022/12/31 13:22:11;;;;;;;0.80;0.60;;;;;;;;;;5026424;28;20036;-79
2022/12/31 13:24:51;;;;;;;2.00;0.73;;;;;;;;;;5021001;28;20032;-73
2022/12/31 13:27:28;;;;;;;0.60;0.60;;;;;;;;;;5027010;28;20511;-75
2022/12/31 13:29:57;;;;;;;0.50;0.50;;;;;;;;;;5020468;28;20074;-74
2022/12/31 13:32:35;;;;;;;1.15;0.75;;;;;;;;;;5036009;28;20453;-75
2022/12/31 13:35:03;;;;;;;0.75;0.60;;;;;;;;;;5020014;28;20030;-76
2022/12/31 13:37:41;;;;;;;2.60;0.80;;;;;;;;;;5023239;28;20030;-77
2022/12/31 13:40:17;;;;;;;2.13;0.70;;;;;;;;;;5025726;28;20033;-76
2022/12/31 13:42:47;;;;;;;1.08;0.70;;;;;;;;;;5019365;28;20029;-77
2022/12/31 13:45:16;;;;;;;1.17;0.52;;;;;;;;;;5023268;28;20030;-75
2022/12/31 13:47:48;;;;;;;0.68;0.68;;;;;;;;;;5025585;28;20124;-73
2022/12/31 13:50:21;;;;;;;0.88;0.70;;;;;;;;;;5026157;28;20473;-75
2022/12/31 13:52:53;;;;;;;1.73;0.60;;;;;;;;;;5018243;28;20056;-76
2022/12/31 13:55:31;;;;;;;0.52;0.52;;;;;;;;;;5011267;28;20043;-76
2022/12/31 13:58:09;;;;;;;1.30;0.63;;;;;;;;;;5023049;28;20334;-71
2022/12/31 14:00:48;;;;;;;1.30;0.57;;;;;;;;;;5021489;28;20307;-75
2022/12/31 14:03:34;;;;;;;0.82;0.80;;;;;;;;;;5017260;28;20029;-75
2022/12/31 14:06:29;;;;;;;0.85;0.60;;;;;;;;;;5023510;28;20030;-76
2022/12/31 14:08:55;;;;;;;1.67;0.88;;;;;;;;;;5011675;28;20045;-74
2022/12/31 14:11:40;;;;;;;0.70;0.63;;;;;;;;;;5027455;28;20021;-74
2022/12/31 14:14:32;;;;;;;2.40;0.68;;;;;;;;;;5027806;28;20017;-74
2022/12/31 14:17:17;;;;;;;2.45;1.00;;;;;;;;;;5014143;28;20044;-73
2022/12/31 14:19:46;;;;;;;0.65;0.60;;;;;;;;;;5021132;28;20269;-75
2022/12/31 14:22:15;;;;;;;1.55;0.60;;;;;;;;;;5028217;28;20020;-77
2022/12/31 14:24:49;;;;;;;1.15;0.60;;;;;;;;;;5037373;28;20383;-76
2022/12/31 14:27:28;;;;;;;1.10;0.57;;;;;;;;;;5028939;28;20071;-75
2022/12/31 14:29:57;;;;;;;4.32;1.20;;;;;;;;;;5028557;28;20026;-74
2022/12/31 14:32:41;;;;;;;2.67;1.65;;;;;;;;;;5033804;28;20393;-75
2022/12/31 14:35:13;;;;;;;3.50;1.50;;;;;;;;;;5028677;28;20056;-75
2022/12/31 14:37:46;;;;;;;1.85;1.13;;;;;;;;;;5028092;28;20036;-80
2022/12/31 14:40:17;;;;;;;3.28;1.33;;;;;;;;;;5028647;28;20503;-75
2022/12/31 14:43:02;;;;;;;2.40;1.10;;;;;;;;;;5027025;28;20045;-73
2022/12/31 14:45:41;;;;;;;2.80;1.00;;;;;;;;;;5029828;28;20033;-76
2022/12/31 14:48:32;;;;;;;3.50;1.10;;;;;;;;;;5023364;28;20033;-76
2022/12/31 14:51:09;;;;;;;4.65;1.42;;;;;;;;;;5034678;28;20022;-76
2022/12/31 14:53:38;;;;;;;2.78;1.23;;;;;;;;;;5038110;28;20034;-74
2022/12/31 14:56:06;;;;;;;2.28;1.17;;;;;;;;;;5031088;28;20121;-74
2022/12/31 14:58:35;;;;;;;0.80;0.80;;;;;;;;;;5032979;28;20072;-73
2022/12/31 15:01:20;;;;;;;1.13;0.90;;;;;;;;;;5027720;28;20028;-75
2022/12/31 15:03:49;;;;;;;7.07;1.40;;;;;;;;;;5022380;28;20559;-74
2022/12/31 15:06:33;;;;;;;2.45;0.88;;;;;;;;;;5028621;28;20029;-75
2022/12/31 15:09:05;;;;;;;2.67;1.20;;;;;;;;;;5028951;28;20054;-72
2022/12/31 15:11:51;;;;;;;2.70;1.48;;;;;;;;;;5027718;28;20054;-74
2022/12/31 15:14:36;;;;;;;1.20;1.08;;;;;;;;;;5023059;28;20040;-76
2022/12/31 15:17:11;;;;;;;1.85;1.30;;;;;;;;;;5031317;28;20055;-75
2022/12/31 15:19:40;;;;;;;8.27;2.15;;;;;;;;;;5027444;28;20057;-73
2022/12/31 15:22:18;;;;;;;3.40;1.75;;;;;;;;;;5027370;28;20075;-72